»·PEaware :: FJS1399 KTEX-KEGE

FJS1399 :: KTEX-KEGE

FLIGHT INFORMATION

Flight Status: Arrived
Operator: Unknown
More flights by this operator :: More flights under this callsign
Pilot: David C. (16084)
Aircraft: ECLIPSE 500
(EA50)
More flights by this aircraft type
Origin: KTEX Telluride Regl
United States
Destination: KEGE Eagle Co Regl
United States
More flights between these airports :: More routes between these airports
Route: ETL V68 MTJ V361 RLG
File this flight plan on PilotEdge
Remarks:
Altitude:
(Current/Filed)
21,000ft
Speed:
(Current/Filed)
355kts
Departed: 22-Jul-18 12:24 PM
Arrived: 22-Jul-18 01:04 PM
Distance/Time
Traveled:
111nm/0:40
Distance/Time
To Go:
Arrived

Flight Plot

Page will automatically refresh every two minutes.

Flight plan parsing failed; only flown route is shown


Map Options




Map Legend


Flown Route
Filed Route
Departure Airport
Arrival Airport
Navaid (VOR, NDB)
Fix

Horizontal Profiles

Position Reports

Time Latitude Longitude Heading Altitude Ground
Speed
22-Jul-18 12:03 37.953971 -107.901084 192 9081ft 0kts
22-Jul-18 12:04 37.953971 -107.901084 192 9081ft 0kts
22-Jul-18 12:05 37.953971 -107.901084 192 9081ft 0kts
22-Jul-18 12:06 37.953971 -107.901084 192 9081ft 0kts
22-Jul-18 12:07 37.953971 -107.901084 192 9081ft 0kts
22-Jul-18 12:08 37.953971 -107.901084 192 9081ft 0kts
22-Jul-18 12:09 37.953971 -107.901084 192 9081ft 0kts
22-Jul-18 12:10 37.953971 -107.901084 192 9081ft 0kts
22-Jul-18 12:11 37.953971 -107.901084 192 9081ft 0kts
22-Jul-18 12:12 37.953971 -107.901084 192 9081ft 0kts
22-Jul-18 12:13 37.953971 -107.901084 192 9081ft 0kts
22-Jul-18 12:14 37.953971 -107.901084 192 9081ft 0kts
22-Jul-18 12:15 37.953971 -107.901084 192 9081ft 0kts
22-Jul-18 12:16 37.953971 -107.901084 192 9081ft 0kts
22-Jul-18 12:17 37.953971 -107.901084 192 9081ft 0kts
22-Jul-18 12:18 37.953971 -107.901084 192 9081ft 0kts
22-Jul-18 12:19 37.953971 -107.901084 192 9081ft 0kts
22-Jul-18 12:20 37.953970 -107.901085 192 9081ft 0kts
22-Jul-18 12:21 37.952693 -107.898038 103 9081ft 28kts
22-Jul-18 12:22 37.952261 -107.896730 159 9081ft 0kts
22-Jul-18 12:23 37.952259 -107.896729 160 9081ft 0kts
22-Jul-18 12:24 37.951473 -107.897641 284 9081ft 21kts
22-Jul-18 12:25 37.956758 -107.922661 283 9270ft 139kts
22-Jul-18 12:26 37.962265 -107.972345 276 10943ft 167kts
22-Jul-18 12:27 37.973093 -108.024056 285 13023ft 164kts
22-Jul-18 12:28 37.984989 -108.078273 285 14718ft 176kts
22-Jul-18 12:29 38.001506 -108.133757 292 16421ft 182kts
22-Jul-18 12:30 38.019119 -108.188762 289 18095ft 180kts
22-Jul-18 12:31 38.034979 -108.241031 308 19498ft 184kts
22-Jul-18 12:32 38.079324 -108.228695 27 20651ft 203kts
22-Jul-18 12:33 38.118533 -108.198750 28 21502ft 217kts
22-Jul-18 12:34 38.166801 -108.161755 29 21448ft 276kts
22-Jul-18 12:35 38.232671 -108.111113 29 21338ft 323kts
22-Jul-18 12:36 38.310814 -108.050880 29 21298ft 351kts
22-Jul-18 12:37 38.395441 -107.985475 29 21293ft 366kts
22-Jul-18 12:38 38.482095 -107.918326 29 21293ft 376kts
22-Jul-18 12:39 38.576055 -107.858316 23 21292ft 387kts
22-Jul-18 12:40 38.672642 -107.800490 23 21285ft 388kts
22-Jul-18 12:41 38.758081 -107.720167 40 21283ft 390kts
22-Jul-18 12:42 38.835582 -107.628562 41 21272ft 390kts
22-Jul-18 12:43 38.913103 -107.535610 41 21281ft 391kts
22-Jul-18 12:44 38.988695 -107.444486 42 21312ft 395kts
22-Jul-18 12:45 39.063131 -107.354418 42 21363ft 397kts
22-Jul-18 12:46 39.132172 -107.270596 43 21414ft 397kts
22-Jul-18 12:47 39.209279 -107.176720 43 21419ft 397kts
22-Jul-18 12:48 39.286073 -107.083227 42 21419ft 397kts
22-Jul-18 12:49 39.363356 -106.988934 42 21420ft 397kts
22-Jul-18 12:50 39.440379 -106.895520 31 21377ft 393kts
22-Jul-18 12:51 39.528234 -106.849324 18 20530ft 325kts
22-Jul-18 12:52 39.604052 -106.810470 18 18215ft 300kts
22-Jul-18 12:53 39.677135 -106.773381 18 15802ft 288kts
22-Jul-18 12:54 39.747867 -106.738182 18 14034ft 271kts
22-Jul-18 12:55 39.817071 -106.704026 18 14000ft 279kts
22-Jul-18 12:56 39.872544 -106.647503 85 13992ft 282kts
22-Jul-18 12:57 39.827462 -106.609804 195 13998ft 206kts
22-Jul-18 12:58 39.771961 -106.626994 195 14000ft 214kts
22-Jul-18 12:59 39.716012 -106.644348 195 14000ft 214kts
22-Jul-18 13:00 39.677243 -106.694136 252 11733ft 231kts
22-Jul-18 13:01 39.662484 -106.755666 257 9693ft 162kts
22-Jul-18 13:02 39.655671 -106.795653 261 8678ft 128kts
22-Jul-18 13:03 39.650488 -106.838216 264 7990ft 126kts
22-Jul-18 13:04 39.645961 -106.887762 262 6891ft 128kts
22-Jul-18 13:05 39.642431 -106.920316 263 6548ft 34kts
22-Jul-18 13:06 39.641075 -106.924432 164 6548ft 8kts
22-Jul-18 13:07 39.640963 -106.923146 81 6548ft 20kts
22-Jul-18 13:08 39.641733 -106.915997 80 6548ft 21kts
22-Jul-18 13:09 39.641104 -106.911736 238 6548ft 15kts
22-Jul-18 13:10 39.640979 -106.911967 231 6548ft 0kts

Navigation Log

Ident Type
Flight plan parsing failed, navigation log unavailable